Orion, Michigan
Current Conditions -  °F | °C
As of 12:53 PM on Friday 26 Dec 2014 (Local Time) from KPTK Reporting Station
Scattered Clouds Scattered Clouds  
Wind Chill: 39°   Ceiling: Unl
Heat Index: 44°   Visibility: 10mi
Dew Point: 34°   Wind: 9mph
Humidity: 68%   Direction: 220°SW
Pressure: 30.04"   Gusts: NA
Location:  42.7458°N, 83.2617°W
Report Text: KPTK 261753Z 22008KT 10SM SCT200 07/01 A3004 RMK AO2 SLP182 T00670011 10067 20000 58020 $
Loading
Personal Weather Stations






























Interactive Weather Map New forecast layout! Learn more

10-Day Weather Forecast

Advertisements
Track Severe Weather on mobile